Aviation Digital Data Service (ADDS)

Output produced by TAFs form (1540 UTC 06 July 2015)
found at http://aviationweather.gov/adds/tafs/
 
KAEG 061133Z 0612/0712 VRB05KT P6SM BKN120 
     FM061900 32008KT P6SM FEW080 FEW150 
     FM062300 07011KT P6SM VCTS SCT080CB BKN150 
     FM070200 12012G18KT P6SM VCSH BKN080